Terminal Aerodrome Forecast
Issued by NWS Cleveland, OH

Current Version | Previous Version | Text Only | Print | Product List | Glossary On
Versions: 1 2 3 4 5 6 7 8 9 10 11 12 13 14 15 16
000
FTUS41 KCLE 051700
TAFYNG
TAF
KYNG 051732Z 0518/0618 25004KT 3SM BR SCT012 OVC045
      TEMPO 0518/0522 2SM -SHRA BR BKN012
     FM052200 VRB04KT 4SM HZ SCT015 OVC080
      TEMPO 0522/0602 2SM -SHRA BR OVC015
     FM060200 VRB02KT 4SM BR BKN015 OVC035
      TEMPO 0609/0613 1SM BR
     FM061600 27005KT 5SM HZ BKN045=

USA.gov is the U.S. government's official web portal to all federal, state and local government web resources and services.